• Join FlightAware (Why Join?)
  • Login
  • US Flag 
10:10AM EST


 

Airport Tracker/Info


-or-


 

Live Flight TrackerFlight Track Log ✈ RPA3496 ✈ 11-May-2014 ✈ KPHL - KLGA

Flight Track Log - Related Links

Times and Time Zones

All times are in EDT time to prevent confusion due to time zone crossing. See the RPA3496 flight status page for this flight to view local times or setup timezone preferences in your user account.

Time Position Orientation Groundspeed Altitude Reporting Facility
EDT Latitude Longitude Course Direction KTS MPH feet Rate Location/Type
02:25PM 39.8667 -75.2833 44° Northeast 153 176 900  Level Philadelphia TRACON
02:27PM 39.8000 -75.3333 210° Southwest 240 276 3,600 2,234 Climbing Philadelphia TRACON
02:28PM 39.7333 -75.3500 191° South 290 334 6,300 1,500 Climbing Philadelphia TRACON
02:30PM 39.7500 -75.1667 83° East 290 334 8,100 567 Climbing Philadelphia TRACON
02:31PM 39.8938 -74.9119 44° Northeast  Level FlightAware Approximate
02:31PM 39.8167 -75.1000 38° Northeast 285 328 8,000  Level Philadelphia TRACON
02:31PM 39.8667 -75.0333 46° Northeast 283 326 8,000 50 Level Philadelphia TRACON
02:33PM 39.9333 -74.9500 44° Northeast 284 327 8,100  Climbing Philadelphia TRACON
02:34PM 39.9833 -74.8667 52° Northeast 282 325 8,000  Descending Philadelphia TRACON
02:35PM 40.0333 -74.8000 46° Northeast 290 334 8,100  Climbing Philadelphia TRACON
02:36PM 40.0833 -74.7000 57° Northeast 291 335 8,000 -47 Descending New York TRACON
02:37PM 40.1333 -74.6167 52° Northeast 289 333 8,000  Level New York TRACON
02:38PM 40.1833 -74.5333 52° Northeast 289 333 8,000  Level New York TRACON
02:39PM 40.2333 -74.4500 52° Northeast 283 326 8,000  Level New York TRACON
02:40PM 40.3000 -74.3833 37° Northeast 284 327 8,000  Level New York TRACON
02:41PM 40.3500 -74.3167 45° Northeast 281 323 8,000  Level New York TRACON
02:42PM 40.4000 -74.2500 45° Northeast 277 319 8,000 -626 Level New York TRACON
02:43PM 40.4667 -74.2000 30° Northeast 252 290 6,800 -1,200 Descending New York TRACON
02:44PM 40.5167 -74.1333 45° Northeast 247 284 5,600 -1,361 Descending New York TRACON
02:45PM 40.5667 -74.0833 37° Northeast 241 277 4,100 -750 Descending New York TRACON
02:46PM 40.6167 -74.0333 37° Northeast 234 269 4,100 -400 Level New York TRACON
02:47PM 40.6667 -73.9833 37° Northeast 220 253 3,300 -800 Descending New York TRACON
02:48PM 40.7167 -73.9333 37° Northeast 208 239 2,500 -750 Descending New York TRACON
02:49PM 40.7333 -73.8667 72° East 183 211 1,800 -900 Descending New York TRACON
02:50PM 40.7667 -73.8333 37° Northeast 164 189 700 -1,100 Descending New York TRACON